Canby, Minnesota
Current Conditions -  °F | °C
As of 10:13 AM on Saturday 20 Dec 2014 (Local Time) from KCNB Reporting Station
Haze Haze  
Wind Chill: 23°   Ceiling: 1000
Heat Index: 32°   Visibility: 5mi
Dew Point: 29°   Wind: 12mph
Humidity: 90%   Direction: 210°SSW
Pressure: 30.07"   Gusts: NA
Location:  44.71°N, 96.28°W
Report Text: KCNB 201613Z AUTO 21010KT 5SM BR OVC010 00/M01 A3007 RMK AO2 T00001015
Loading
Personal Weather Stations






























Interactive Weather Map New forecast layout! Learn more

10-Day Weather Forecast

Advertisements
Track Severe Weather on mobile